Terminal Aerodrome Forecast
Issued by NWS

Home | Current Version | Previous Version | Text Only | Print | Product List | Glossary On
Versions: 1 2 3 4 5 6 7 8 9 10 11 12 13 14 15
000
FTUS43 KBIS 231700 RRA
TAFJMS
TAF
KJMS 231743Z 2318/2418 18016G24KT P6SM BKN020
     FM240200 15010KT P6SM OVC010
     FM241500 18008KT P6SM SCT035
     FM241700 19008KT P6SM SCT250=

USA.gov is the U.S. government's official web portal to all federal, state and local government web resources and services.